Terminal Aerodrome Forecast
Issued by NWS Lake Charles, LA

Home | Current Version | Previous Version | Text Only | Print | Product List | Glossary On
Versions: 1 2 3 4 5 6 7 8 9 10 11 12 13 14 15 16 17
720
FTUS44 KLCH 231129
TAFAEX
TAF
KAEX 231129Z 2312/2412 00000KT 5SM BR SKC
     FM231400 VRB05KT P6SM SKC
     FM231700 11007KT P6SM FEW050
     FM240100 VRB03KT P6SM SCT250
     FM240900 00000KT 4SM BR SKC=

USA.gov is the U.S. government's official web portal to all federal, state and local government web resources and services.